Time;durP1;ratioP1;P1;durP2;ratioP2;P2;SDS_P1;SDS_P2;PMS_P1;PMS_P2;Temp;Humidity;BMP_temperature;BMP_pressure;BME280_temperature;BME280_humidity;BME280_pressure;Samples;Min_cycle;Max_cycle;Signal;HPM_P1;HPM_P2
2022/03/11 00:02:16;;;;;;;;;;;;;;;;;;5055256;28;19972;-51
2022/03/11 00:04:42;;;;;;;;;;;;;;;;;;5055311;28;19913;-49
2022/03/11 00:07:08;;;;;;;;;;;;;;;;;;5044484;28;19947;-51
2022/03/11 00:09:33;;;;;;;;;;;;;;;;;;5035193;28;20000;-50
2022/03/11 00:11:58;;;;;;;;;;;;;;;;;;5035313;28;19909;-51
2022/03/11 00:14:24;;;;;;;;;;;;;;;;;;5035115;28;20364;-50
2022/03/11 00:16:49;;;;;;;;;;;;;;;;;;5042107;28;20004;-48
2022/03/11 00:19:14;;;;;;;;;;;;;;;;;;5035875;28;19917;-48
2022/03/11 00:21:39;;;;;;;;;;;;;;;;;;5035136;28;19962;-48
2022/03/11 00:24:04;;;;;;;;;;;;;;;;;;5034856;28;19955;-48
2022/03/11 00:26:31;;;;;;;;;;;;;;;;;;5042893;28;19917;-48
2022/03/11 00:28:56;;;;;;;;;;;;;;;;;;5048917;28;19985;-48
2022/03/11 00:31:21;;;;;;;;;;;;;;;;;;5054998;28;20367;-48
2022/03/11 00:33:46;;;;;;;;;;;;;;;;;;5054862;28;19952;-51
2022/03/11 00:36:11;;;;;;;;;;;;;;;;;;5050275;28;19913;-49
2022/03/11 00:38:36;;;;;;;;;;;;;;;;;;5042274;28;19967;-48
2022/03/11 00:41:02;;;;;;;;;;;;;;;;;;5044963;28;20344;-47
2022/03/11 00:43:27;;;;;;;;;;;;;;;;;;5033681;28;20328;-47
2022/03/11 00:45:52;;;;;;;;;;;;;;;;;;5034542;28;20352;-48
2022/03/11 00:48:17;;;;;;;;;;;;;;;;;;5035061;28;19920;-48
2022/03/11 00:50:42;;;;;;;;;;;;;;;;;;5034735;28;20364;-48
2022/03/11 00:53:07;;;;;;;;;;;;;;;;;;5034208;28;19909;-48
2022/03/11 00:55:32;;;;;;;;;;;;;;;;;;5034504;28;19913;-50
2022/03/11 00:57:57;;;;;;;;;;;;;;;;;;5034117;28;19909;-48
2022/03/11 01:00:23;;;;;;;;;;;;;;;;;;5034818;28;19913;-49
2022/03/11 01:02:49;;;;;;;;;;;;;;;;;;5034639;28;19909;-48
2022/03/11 01:05:14;;;;;;;;;;;;;;;;;;5034697;28;19992;-49
2022/03/11 01:07:39;;;;;;;;;;;;;;;;;;5034049;28;20249;-49
2022/03/11 01:10:04;;;;;;;;;;;;;;;;;;5034268;28;19925;-48
2022/03/11 01:12:29;;;;;;;;;;;;;;;;;;5034740;28;20384;-49
2022/03/11 01:14:54;;;;;;;;;;;;;;;;;;5034694;28;20012;-47
2022/03/11 01:17:19;;;;;;;;;;;;;;;;;;5047079;28;19995;-49
2022/03/11 01:19:44;;;;;;;;;;;;;;;;;;5054596;28;20308;-51
2022/03/11 01:22:09;;;;;;;;;;;;;;;;;;5054329;28;19905;-48
2022/03/11 01:24:35;;;;;;;;;;;;;;;;;;5042079;28;19912;-48
2022/03/11 01:27:00;;;;;;;;;;;;;;;;;;5050972;28;19919;-48
2022/03/11 01:29:25;;;;;;;;;;;;;;;;;;5048307;28;19919;-50
2022/03/11 01:31:50;;;;;;;;;;;;;;;;;;5034497;28;19915;-49
2022/03/11 01:34:15;;;;;;;;;;;;;;;;;;5034489;28;19913;-48
2022/03/11 01:36:40;;;;;;;;;;;;;;;;;;5042189;28;19921;-47
2022/03/11 01:39:05;;;;;;;;;;;;;;;;;;5054318;28;19924;-48
2022/03/11 01:41:30;;;;;;;;;;;;;;;;;;5054117;28;19909;-48
2022/03/11 01:43:55;;;;;;;;;;;;;;;;;;5044927;28;19936;-50
2022/03/11 01:46:20;;;;;;;;;;;;;;;;;;5051245;28;19924;-47
2022/03/11 01:48:46;;;;;;;;;;;;;;;;;;5054109;28;19909;-47
2022/03/11 01:51:11;;;;;;;;;;;;;;;;;;5053968;28;20020;-50
2022/03/11 01:53:36;;;;;;;;;;;;;;;;;;5053460;28;19945;-47
2022/03/11 01:56:01;;;;;;;;;;;;;;;;;;5048428;28;20344;-49
2022/03/11 01:58:26;;;;;;;;;;;;;;;;;;5053892;28;20019;-50
2022/03/11 02:00:51;;;;;;;;;;;;;;;;;;5046681;28;19953;-47
2022/03/11 02:03:16;;;;;;;;;;;;;;;;;;5042806;28;19944;-50
2022/03/11 02:05:43;;;;;;;;;;;;;;;;;;5057070;28;19959;-49
2022/03/11 02:08:08;;;;;;;;;;;;;;;;;;5057597;28;19960;-48
2022/03/11 02:10:33;;;;;;;;;;;;;;;;;;5101560;23;19979;-48
2022/03/11 02:12:58;;;;;;;;;;;;;;;;;;5097559;28;19962;-48
2022/03/11 02:15:24;;;;;;;;;;;;;;;;;;5097680;28;20488;-48
2022/03/11 02:17:49;;;;;;;;;;;;;;;;;;5097721;28;19961;-50
2022/03/11 02:20:14;;;;;;;;;;;;;;;;;;5097039;28;19908;-50
2022/03/11 02:22:39;;;;;;;;;;;;;;;;;;5097409;28;19962;-49
2022/03/11 02:25:04;;;;;;;;;;;;;;;;;;5097408;28;19912;-48
2022/03/11 02:27:29;;;;;;;;;;;;;;;;;;5079440;28;19913;-48
2022/03/11 02:29:54;;;;;;;;;;;;;;;;;;5094681;28;20320;-48
2022/03/11 02:32:19;;;;;;;;;;;;;;;;;;5097299;28;19912;-48
2022/03/11 02:34:45;;;;;;;;;;;;;;;;;;5097131;28;20296;-49
2022/03/11 02:37:10;;;;;;;;;;;;;;;;;;5096307;28;19965;-48
2022/03/11 02:39:35;;;;;;;;;;;;;;;;;;5096593;28;19919;-49
2022/03/11 02:42:01;;;;;;;;;;;;;;;;;;5096630;28;20290;-48
2022/03/11 02:44:29;;;;;;;;;;;;;;;;;;5097053;28;20011;-49
2022/03/11 02:46:54;;;;;;;;;;;;;;;;;;5096386;28;20362;-48
2022/03/11 02:49:19;;;;;;;;;;;;;;;;;;5097050;28;19908;-49
2022/03/11 02:51:44;;;;;;;;;;;;;;;;;;5097360;28;19915;-48
2022/03/11 02:54:09;;;;;;;;;;;;;;;;;;5097165;28;19911;-47
2022/03/11 02:56:34;;;;;;;;;;;;;;;;;;5089376;28;19924;-48
2022/03/11 02:59:00;;;;;;;;;;;;;;;;;;5076818;28;19912;-48
2022/03/11 03:01:25;;;;;;;;;;;;;;;;;;5076554;28;19936;-48
2022/03/11 03:03:50;;;;;;;;;;;;;;;;;;5076512;28;20315;-48
2022/03/11 03:06:15;;;;;;;;;;;;;;;;;;5075822;28;20375;-48
2022/03/11 03:08:40;;;;;;;;;;;;;;;;;;5075369;28;19916;-48
2022/03/11 03:11:05;;;;;;;;;;;;;;;;;;5076479;28;19942;-49
2022/03/11 03:13:30;;;;;;;;;;;;;;;;;;5076223;28;20375;-48
2022/03/11 03:15:55;;;;;;;;;;;;;;;;;;5074702;28;20275;-48
2022/03/11 03:18:21;;;;;;;;;;;;;;;;;;5076423;28;19916;-49
2022/03/11 03:20:46;;;;;;;;;;;;;;;;;;5076289;28;19915;-48
2022/03/11 03:23:11;;;;;;;;;;;;;;;;;;5076034;28;19909;-51
2022/03/11 03:25:36;;;;;;;;;;;;;;;;;;5076104;28;19909;-48
2022/03/11 03:28:01;;;;;;;;;;;;;;;;;;5075248;28;19917;-50
2022/03/11 03:30:26;;;;;;;;;;;;;;;;;;5076227;28;19938;-48
2022/03/11 03:32:51;;;;;;;;;;;;;;;;;;5076024;28;19966;-49
2022/03/11 03:35:16;;;;;;;;;;;;;;;;;;5075860;28;19913;-50
2022/03/11 03:37:41;;;;;;;;;;;;;;;;;;5075029;28;20366;-48
2022/03/11 03:40:07;;;;;;;;;;;;;;;;;;5075740;28;19966;-48
2022/03/11 03:42:32;;;;;;;;;;;;;;;;;;5075778;28;20424;-48
2022/03/11 03:44:57;;;;;;;;;;;;;;;;;;5075852;28;20382;-48
2022/03/11 03:47:22;;;;;;;;;;;;;;;;;;5062666;28;20000;-49
2022/03/11 03:49:47;;;;;;;;;;;;;;;;;;5055669;28;19912;-51
2022/03/11 03:52:12;;;;;;;;;;;;;;;;;;5055750;28;19909;-49
2022/03/11 03:54:37;;;;;;;;;;;;;;;;;;5054300;28;19915;-48
2022/03/11 03:57:02;;;;;;;;;;;;;;;;;;5055349;28;20367;-48
2022/03/11 03:59:27;;;;;;;;;;;;;;;;;;5055381;28;19913;-48
2022/03/11 04:01:52;;;;;;;;;;;;;;;;;;5055362;28;19916;-50
2022/03/11 04:04:18;;;;;;;;;;;;;;;;;;5055313;28;20268;-48
2022/03/11 04:06:43;;;;;;;;;;;;;;;;;;5062053;28;20232;-48
2022/03/11 04:09:08;;;;;;;;;;;;;;;;;;5074969;28;19927;-48
2022/03/11 04:11:33;;;;;;;;;;;;;;;;;;5075208;28;19909;-49
2022/03/11 04:13:58;;;;;;;;;;;;;;;;;;5075406;28;19908;-48
2022/03/11 04:16:23;;;;;;;;;;;;;;;;;;5074502;28;20367;-48
2022/03/11 04:18:48;;;;;;;;;;;;;;;;;;5074991;28;20256;-48
2022/03/11 04:21:13;;;;;;;;;;;;;;;;;;5074988;28;19911;-50
2022/03/11 04:23:39;;;;;;;;;;;;;;;;;;5075006;28;20351;-51
2022/03/11 04:26:04;;;;;;;;;;;;;;;;;;5069360;28;19912;-49
2022/03/11 04:28:29;;;;;;;;;;;;;;;;;;5053921;28;19909;-49
2022/03/11 04:30:54;;;;;;;;;;;;;;;;;;5054949;28;19909;-49
2022/03/11 04:33:20;;;;;;;;;;;;;;;;;;5055033;28;19908;-50
2022/03/11 04:35:45;;;;;;;;;;;;;;;;;;5069139;28;19916;-49
2022/03/11 04:38:10;;;;;;;;;;;;;;;;;;5074898;28;19909;-48
2022/03/11 04:40:35;;;;;;;;;;;;;;;;;;5074906;28;19908;-50
2022/03/11 04:43:01;;;;;;;;;;;;;;;;;;5074798;28;20367;-49
2022/03/11 04:45:26;;;;;;;;;;;;;;;;;;5074884;28;19953;-49
2022/03/11 04:47:51;;;;;;;;;;;;;;;;;;5074468;28;20290;-49
2022/03/11 04:50:17;;;;;;;;;;;;;;;;;;5074890;28;20347;-49
2022/03/11 04:52:42;;;;;;;;;;;;;;;;;;5074686;28;19912;-49
2022/03/11 04:55:07;;;;;;;;;;;;;;;;;;5074635;28;19916;-50
2022/03/11 04:57:32;;;;;;;;;;;;;;;;;;5058651;28;19919;-48
2022/03/11 04:59:57;;;;;;;;;;;;;;;;;;5054723;28;19915;-49
2022/03/11 05:02:22;;;;;;;;;;;;;;;;;;5055083;28;20367;-51
2022/03/11 05:04:47;;;;;;;;;;;;;;;;;;5055200;28;19996;-50
2022/03/11 05:07:12;;;;;;;;;;;;;;;;;;5067232;28;20018;-49
2022/03/11 05:09:38;;;;;;;;;;;;;;;;;;5074088;28;20458;-48
2022/03/11 05:12:03;;;;;;;;;;;;;;;;;;5074744;28;20343;-50
2022/03/11 05:14:28;;;;;;;;;;;;;;;;;;5074504;28;19909;-50
2022/03/11 05:16:53;;;;;;;;;;;;;;;;;;5074440;28;19917;-48
2022/03/11 05:19:18;;;;;;;;;;;;;;;;;;5074544;28;19915;-51
2022/03/11 05:21:43;;;;;;;;;;;;;;;;;;5074389;28;20372;-48
2022/03/11 05:24:09;;;;;;;;;;;;;;;;;;5074331;28;19909;-48
2022/03/11 05:26:34;;;;;;;;;;;;;;;;;;5073754;28;19919;-48
2022/03/11 05:28:59;;;;;;;;;;;;;;;;;;5074353;28;19915;-48
2022/03/11 05:31:24;;;;;;;;;;;;;;;;;;5074405;28;19936;-49
2022/03/11 05:33:49;;;;;;;;;;;;;;;;;;5074391;28;19938;-47
2022/03/11 05:36:14;;;;;;;;;;;;;;;;;;5071859;28;20389;-47
2022/03/11 05:38:39;;;;;;;;;;;;;;;;;;5054341;28;20307;-47
2022/03/11 05:41:04;;;;;;;;;;;;;;;;;;5058078;28;19940;-49
2022/03/11 05:43:30;;;;;;;;;;;;;;;;;;5058057;28;19958;-47
2022/03/11 05:45:55;;;;;;;;;;;;;;;;;;5058790;28;19970;-50
2022/03/11 05:48:20;;;;;;;;;;;;;;;;;;5077996;28;19909;-48
2022/03/11 05:50:45;;;;;;;;;;;;;;;;;;5077943;28;19908;-50
2022/03/11 05:53:10;;;;;;;;;;;;;;;;;;5077982;28;20363;-49
2022/03/11 05:55:35;;;;;;;;;;;;;;;;;;5077415;28;19912;-47
2022/03/11 05:58:00;;;;;;;;;;;;;;;;;;5059650;28;19986;-48
2022/03/11 06:00:25;;;;;;;;;;;;;;;;;;5057546;28;20107;-48
2022/03/11 06:02:50;;;;;;;;;;;;;;;;;;5057626;28;19999;-50
2022/03/11 06:05:16;;;;;;;;;;;;;;;;;;5057638;28;19923;-49
2022/03/11 06:07:41;;;;;;;;;;;;;;;;;;5072951;28;19919;-48
2022/03/11 06:10:06;;;;;;;;;;;;;;;;;;5077600;28;19921;-48
2022/03/11 06:12:31;;;;;;;;;;;;;;;;;;5077705;28;19912;-48
2022/03/11 06:14:57;;;;;;;;;;;;;;;;;;5077398;28;19920;-47
2022/03/11 06:17:22;;;;;;;;;;;;;;;;;;5077740;28;19917;-47
2022/03/11 06:19:47;;;;;;;;;;;;;;;;;;5077700;28;19909;-49
2022/03/11 06:22:12;;;;;;;;;;;;;;;;;;5076076;28;19915;-48
2022/03/11 06:24:37;;;;;;;;;;;;;;;;;;5072529;28;19916;-48
2022/03/11 06:27:02;;;;;;;;;;;;;;;;;;5071588;28;19917;-51
2022/03/11 06:29:28;;;;;;;;;;;;;;;;;;5074499;28;19908;-53
2022/03/11 06:31:53;;;;;;;;;;;;;;;;;;5076543;28;19999;-54
2022/03/11 06:34:18;;;;;;;;;;;;;;;;;;5077368;28;19966;-55
2022/03/11 06:36:43;;;;;;;;;;;;;;;;;;5073485;28;19917;-53
2022/03/11 06:39:11;;;;;;;;;;;;;;;;;;5076277;28;19919;-54
2022/03/11 06:41:36;;;;;;;;;;;;;;;;;;5074199;28;19919;-52
2022/03/11 06:44:01;;;;;;;;;;;;;;;;;;5079635;28;19920;-53
2022/03/11 06:46:26;;;;;;;;;;;;;;;;;;5078266;28;20363;-52
2022/03/11 06:48:51;;;;;;;;;;;;;;;;;;5067934;28;20575;-52
2022/03/11 06:51:16;;;;;;;;;;;;;;;;;;5075189;28;19919;-54
2022/03/11 06:53:41;;;;;;;;;;;;;;;;;;5071765;28;19913;-54
2022/03/11 06:56:06;;;;;;;;;;;;;;;;;;5072378;28;19917;-55
2022/03/11 06:58:35;;;;;;;;;;;;;;;;;;5070584;28;19912;-54
2022/03/11 07:01:00;;;;;;;;;;;;;;;;;;5066728;28;19917;-53
2022/03/11 07:03:25;;;;;;;;;;;;;;;;;;5065915;28;19959;-52
2022/03/11 07:05:50;;;;;;;;;;;;;;;;;;5059808;28;20287;-53
2022/03/11 07:08:15;;;;;;;;;;;;;;;;;;5060335;28;19927;-51
2022/03/11 07:10:40;;;;;;;;;;;;;;;;;;5048672;28;20015;-52
2022/03/11 07:13:05;;;;;;;;;;;;;;;;;;5038235;28;19998;-55
2022/03/11 07:15:30;;;;;;;;;;;;;;;;;;5023824;28;19924;-53
2022/03/11 07:17:56;;;;;;;;;;;;;;;;;;4992871;28;19929;-55
2022/03/11 07:20:21;;;;;;;;;;;;;;;;;;4981260;28;20005;-54
2022/03/11 07:22:48;;;;;;;;;;;;;;;;;;4892687;28;19963;-55
2022/03/11 07:25:13;;;;;;;;;;;;;;;;;;4814989;28;19920;-53
2022/03/11 07:27:38;;;;;;;;;;;;;;;;;;4775559;28;20015;-53
2022/03/11 07:30:03;;;;;;;;;;;;;;;;;;4744049;28;21515;-55
2022/03/11 07:32:28;;;;;;;;;;;;;;;;;;4790233;28;22104;-54
2022/03/11 07:34:54;;;;;;;;;;;;;;;;;;4822927;28;19920;-54
2022/03/11 07:37:21;;;;;;;;;;;;;;;;;;4845916;28;19974;-54
2022/03/11 07:39:46;;;;;;;;;;;;;;;;;;4907024;28;19993;-54
2022/03/11 07:42:12;;;;;;;;;;;;;;;;;;4935520;28;19931;-54
2022/03/11 07:44:40;;;;;;;;;;;;;;;;;;4970624;28;19925;-54
2022/03/11 07:47:05;;;;;;;;;;;;;;;;;;4954605;28;21454;-53
2022/03/11 07:49:30;;;;;;;;;;;;;;;;;;4938047;28;19924;-53
2022/03/11 07:51:56;;;;;;;;;;;;;;;;;;4959454;28;19921;-54
2022/03/11 07:54:21;;;;;;;;;;;;;;;;;;4953139;28;19927;-55
2022/03/11 07:56:46;;;;;;;;;;;;;;;;;;4948391;28;20062;-54
2022/03/11 07:59:11;;;;;;;;;;;;;;;;;;4964312;28;20006;-54
2022/03/11 08:01:36;;;;;;;;;;;;;;;;;;4935946;28;20415;-54
2022/03/11 08:04:01;;;;;;;;;;;;;;;;;;4936055;28;19954;-54
2022/03/11 08:06:26;;;;;;;;;;;;;;;;;;4905934;28;19921;-54
2022/03/11 08:08:51;;;;;;;;;;;;;;;;;;4903589;28;19993;-54
2022/03/11 08:11:17;;;;;;;;;;;;;;;;;;4911107;28;22094;-53
2022/03/11 08:13:42;;;;;;;;;;;;;;;;;;4886244;28;21313;-54
2022/03/11 08:16:07;;;;;;;;;;;;;;;;;;4843346;28;19946;-54
2022/03/11 08:18:32;;;;;;;;;;;;;;;;;;4789042;28;22977;-54
2022/03/11 08:20:57;;;;;;;;;;;;;;;;;;4657044;28;22606;-57
2022/03/11 08:23:23;;;;;;;;;;;;;;;;;;4707002;28;21352;-54
2022/03/11 08:25:48;;;;;;;;;;;;;;;;;;4635792;28;22556;-54
2022/03/11 08:28:13;;;;;;;;;;;;;;;;;;4733247;28;20186;-57
2022/03/11 08:30:38;;;;;;;;;;;;;;;;;;4804033;28;21051;-57
2022/03/11 08:33:04;;;;;;;;;;;;;;;;;;4895497;28;19944;-55
2022/03/11 08:35:29;;;;;;;;;;;;;;;;;;4849661;28;19962;-55
2022/03/11 08:37:54;;;;;;;;;;;;;;;;;;4856687;28;22098;-54
2022/03/11 08:40:24;;;;;;;;;;;;;;;;;;4859940;28;19943;-54
2022/03/11 08:42:49;;;;;;;;;;;;;;;;;;4861509;28;19991;-56
2022/03/11 08:45:14;;;;;;;;;;;;;;;;;;4834576;28;19921;-53
2022/03/11 08:47:39;;;;;;;;;;;;;;;;;;4845615;28;21591;-53
2022/03/11 08:50:04;;;;;;;;;;;;;;;;;;4860193;28;22843;-54
2022/03/11 08:52:29;;;;;;;;;;;;;;;;;;4848593;28;20687;-54
2022/03/11 08:54:54;;;;;;;;;;;;;;;;;;4877752;28;19925;-54
2022/03/11 08:57:19;;;;;;;;;;;;;;;;;;4875595;28;21138;-54
2022/03/11 08:59:45;;;;;;;;;;;;;;;;;;4890804;28;20961;-56
2022/03/11 09:02:10;;;;;;;;;;;;;;;;;;4866555;28;19927;-54
2022/03/11 09:04:35;;;;;;;;;;;;;;;;;;4840126;28;21305;-54
2022/03/11 09:07:00;;;;;;;;;;;;;;;;;;4835587;28;22092;-55
2022/03/11 09:09:26;;;;;;;;;;;;;;;;;;4781337;28;20614;-55
2022/03/11 09:11:51;;;;;;;;;;;;;;;;;;4728574;28;21667;-53
2022/03/11 09:14:17;;;;;;;;;;;;;;;;;;4726963;28;21568;-54
2022/03/11 09:16:42;;;;;;;;;;;;;;;;;;4769626;28;20567;-54
2022/03/11 09:19:08;;;;;;;;;;;;;;;;;;4808493;28;20399;-57
2022/03/11 09:21:34;;;;;;;;;;;;;;;;;;4796434;28;19920;-55
2022/03/11 09:23:59;;;;;;;;;;;;;;;;;;4792182;28;19920;-54
2022/03/11 09:26:24;;;;;;;;;;;;;;;;;;4717606;28;20042;-54
2022/03/11 09:28:51;;;;;;;;;;;;;;;;;;4595863;28;21677;-54
2022/03/11 09:31:16;;;;;;;;;;;;;;;;;;4590385;28;21132;-54
2022/03/11 09:33:41;;;;;;;;;;;;;;;;;;4705782;28;24773;-54
2022/03/11 09:36:06;;;;;;;;;;;;;;;;;;4790238;28;20509;-55
2022/03/11 09:38:31;;;;;;;;;;;;;;;;;;4833947;28;20524;-55
2022/03/11 09:40:56;;;;;;;;;;;;;;;;;;4878893;28;22181;-54
2022/03/11 09:43:21;;;;;;;;;;;;;;;;;;4872898;28;19921;-54
2022/03/11 09:45:46;;;;;;;;;;;;;;;;;;4862916;28;20608;-54
2022/03/11 09:48:12;;;;;;;;;;;;;;;;;;4836699;28;20589;-54
2022/03/11 09:50:37;;;;;;;;;;;;;;;;;;4844190;28;19920;-55
2022/03/11 09:53:02;;;;;;;;;;;;;;;;;;4885001;28;22419;-55
2022/03/11 09:55:27;;;;;;;;;;;;;;;;;;4882187;28;19928;-54
2022/03/11 09:57:53;;;;;;;;;;;;;;;;;;4865962;28;19920;-57
2022/03/11 10:00:18;;;;;;;;;;;;;;;;;;4847277;28;20696;-54
2022/03/11 10:02:43;;;;;;;;;;;;;;;;;;4817642;28;19920;-54
2022/03/11 10:05:08;;;;;;;;;;;;;;;;;;4854394;28;20003;-56
2022/03/11 10:07:33;;;;;;;;;;;;;;;;;;4842238;28;20003;-55
2022/03/11 10:09:58;;;;;;;;;;;;;;;;;;4858045;28;21974;-54
2022/03/11 10:12:24;;;;;;;;;;;;;;;;;;4833188;28;19920;-54
2022/03/11 10:14:49;;;;;;;;;;;;;;;;;;4823231;28;20532;-55
2022/03/11 10:17:14;;;;;;;;;;;;;;;;;;4753589;28;21054;-56
2022/03/11 10:19:39;;;;;;;;;;;;;;;;;;4622581;28;21178;-53
2022/03/11 10:22:04;;;;;;;;;;;;;;;;;;4583037;28;20037;-54
2022/03/11 10:24:29;;;;;;;;;;;;;;;;;;4556959;28;20167;-54
2022/03/11 10:26:55;;;;;;;;;;;;;;;;;;4747022;28;26451;-57
2022/03/11 10:29:20;;;;;;;;;;;;;;;;;;4733728;28;19920;-53
2022/03/11 10:31:45;;;;;;;;;;;;;;;;;;4792834;28;21532;-54
2022/03/11 10:34:10;;;;;;;;;;;;;;;;;;4742562;28;20125;-54
2022/03/11 10:36:35;;;;;;;;;;;;;;;;;;4722216;28;20598;-53
2022/03/11 10:39:00;;;;;;;;;;;;;;;;;;4725427;28;20586;-53
2022/03/11 10:41:25;;;;;;;;;;;;;;;;;;4696236;28;19920;-53
2022/03/11 10:43:50;;;;;;;;;;;;;;;;;;4733788;28;24216;-54
2022/03/11 10:46:17;;;;;;;;;;;;;;;;;;4717259;28;21665;-55
2022/03/11 10:48:42;;;;;;;;;;;;;;;;;;4743170;28;21176;-55
2022/03/11 10:51:07;;;;;;;;;;;;;;;;;;4742242;28;21479;-56
2022/03/11 10:53:33;;;;;;;;;;;;;;;;;;4689557;28;21652;-57
2022/03/11 10:55:58;;;;;;;;;;;;;;;;;;4678847;28;20991;-54
2022/03/11 10:58:23;;;;;;;;;;;;;;;;;;4687567;28;20912;-54
2022/03/11 11:00:48;;;;;;;;;;;;;;;;;;4680539;28;20233;-56
2022/03/11 11:03:13;;;;;;;;;;;;;;;;;;4616422;28;21078;-55
2022/03/11 11:05:39;;;;;;;;;;;;;;;;;;4623175;28;20682;-55
2022/03/11 11:08:04;;;;;;;;;;;;;;;;;;4544017;28;22008;-53
2022/03/11 11:10:29;;;;;;;;;;;;;;;;;;4480233;28;21116;-55
2022/03/11 11:12:54;;;;;;;;;;;;;;;;;;4469077;28;19949;-56
2022/03/11 11:15:19;;;;;;;;;;;;;;;;;;4638261;28;20001;-54
2022/03/11 11:17:45;;;;;;;;;;;;;;;;;;4748434;28;22332;-53
2022/03/11 11:20:10;;;;;;;;;;;;;;;;;;4822865;28;20021;-54
2022/03/11 11:22:35;;;;;;;;;;;;;;;;;;4831261;28;19959;-51
2022/03/11 11:25:00;;;;;;;;;;;;;;;;;;4846158;28;19998;-54
2022/03/11 11:27:25;;;;;;;;;;;;;;;;;;4835897;28;21391;-56
2022/03/11 11:29:50;;;;;;;;;;;;;;;;;;4790788;28;19921;-55
2022/03/11 11:32:15;;;;;;;;;;;;;;;;;;4785245;28;22915;-54
2022/03/11 11:34:40;;;;;;;;;;;;;;;;;;4788205;28;23864;-54
2022/03/11 11:37:08;;;;;;;;;;;;;;;;;;4711582;28;22652;-54
2022/03/11 11:39:33;;;;;;;;;;;;;;;;;;4754625;28;19921;-56
2022/03/11 11:42:00;;;;;;;;;;;;;;;;;;4710038;28;21299;-58
2022/03/11 11:44:25;;;;;;;;;;;;;;;;;;4593630;28;19952;-55
2022/03/11 11:46:50;;;;;;;;;;;;;;;;;;4714430;28;19958;-53
2022/03/11 11:49:22;;;;;;;;;;;;;;;;;;4772154;28;19920;-56
2022/03/11 11:51:47;;;;;;;;;;;;;;;;;;4779620;28;20188;-56
2022/03/11 11:54:12;;;;;;;;;;;;;;;;;;4778650;28;19928;-54
2022/03/11 11:56:37;;;;;;;;;;;;;;;;;;4776601;28;19994;-57
2022/03/11 11:59:03;;;;;;;;;;;;;;;;;;4769621;28;19921;-54
2022/03/11 12:01:28;;;;;;;;;;;;;;;;;;4762727;28;19932;-55
2022/03/11 12:03:53;;;;;;;;;;;;;;;;;;4762654;28;19920;-56
2022/03/11 12:06:18;;;;;;;;;;;;;;;;;;4772940;28;19928;-53
2022/03/11 12:08:43;;;;;;;;;;;;;;;;;;4783460;28;21657;-54
2022/03/11 12:11:08;;;;;;;;;;;;;;;;;;4806148;28;19956;-58
2022/03/11 12:13:34;;;;;;;;;;;;;;;;;;4812803;28;19956;-54
2022/03/11 12:16:00;;;;;;;;;;;;;;;;;;4823300;28;19928;-56
2022/03/11 12:18:25;;;;;;;;;;;;;;;;;;4840267;28;19920;-55
2022/03/11 12:20:50;;;;;;;;;;;;;;;;;;4808404;28;25416;-57
2022/03/11 12:23:15;;;;;;;;;;;;;;;;;;4814631;28;20374;-58
2022/03/11 12:25:40;;;;;;;;;;;;;;;;;;4813405;28;19979;-56
2022/03/11 12:28:05;;;;;;;;;;;;;;;;;;4788183;28;19939;-58
2022/03/11 12:30:30;;;;;;;;;;;;;;;;;;4767248;28;22529;-54
2022/03/11 12:32:56;;;;;;;;;;;;;;;;;;4773802;28;20400;-56
2022/03/11 12:35:21;;;;;;;;;;;;;;;;;;4790565;28;19931;-54
2022/03/11 12:37:46;;;;;;;;;;;;;;;;;;4802196;28;20816;-54
2022/03/11 12:40:11;;;;;;;;;;;;;;;;;;4825870;28;19928;-54
2022/03/11 12:42:37;;;;;;;;;;;;;;;;;;4819949;28;20988;-56
2022/03/11 12:45:02;;;;;;;;;;;;;;;;;;4853176;28;19927;-55
2022/03/11 12:47:27;;;;;;;;;;;;;;;;;;4849822;22;21395;-54
2022/03/11 12:49:52;;;;;;;;;;;;;;;;;;4764128;28;19928;-55
2022/03/11 12:52:17;;;;;;;;;;;;;;;;;;4738276;28;20637;-54
2022/03/11 12:54:42;;;;;;;;;;;;;;;;;;4723927;28;19928;-54
2022/03/11 12:57:07;;;;;;;;;;;;;;;;;;4786311;28;19932;-52
2022/03/11 12:59:33;;;;;;;;;;;;;;;;;;4761740;28;19921;-55
2022/03/11 13:01:58;;;;;;;;;;;;;;;;;;4744584;28;20533;-54
2022/03/11 13:04:23;;;;;;;;;;;;;;;;;;4786192;28;21411;-57
2022/03/11 13:06:48;;;;;;;;;;;;;;;;;;4827388;28;20985;-54
2022/03/11 13:09:13;;;;;;;;;;;;;;;;;;4790219;28;19921;-54
2022/03/11 13:11:38;;;;;;;;;;;;;;;;;;4781670;28;21214;-53
2022/03/11 13:14:03;;;;;;;;;;;;;;;;;;4752598;28;21538;-52
2022/03/11 13:16:28;;;;;;;;;;;;;;;;;;4733649;28;19931;-54
2022/03/11 13:18:54;;;;;;;;;;;;;;;;;;4724941;28;19931;-55
2022/03/11 13:21:20;;;;;;;;;;;;;;;;;;4671799;28;19922;-55
2022/03/11 13:23:45;;;;;;;;;;;;;;;;;;4621487;28;23205;-51
2022/03/11 13:26:18;;;;;;;;;;;;;;;;;;4642190;28;21414;-54
2022/03/11 13:28:46;;;;;;;;;;;;;;;;;;4708773;28;21840;-57
2022/03/11 13:31:12;;;;;;;;;;;;;;;;;;4752824;28;19928;-52
2022/03/11 13:33:37;;;;;;;;;;;;;;;;;;4821608;28;21212;-54
2022/03/11 13:36:02;;;;;;;;;;;;;;;;;;4820317;28;19925;-56
2022/03/11 13:38:27;;;;;;;;;;;;;;;;;;4829392;28;19922;-54
2022/03/11 13:40:52;;;;;;;;;;;;;;;;;;4835233;28;19927;-55
2022/03/11 13:43:17;;;;;;;;;;;;;;;;;;4809208;28;21280;-52
2022/03/11 13:45:42;;;;;;;;;;;;;;;;;;4766127;28;21121;-52
2022/03/11 13:48:08;;;;;;;;;;;;;;;;;;4776274;28;20101;-53
2022/03/11 13:50:33;;;;;;;;;;;;;;;;;;4747880;28;20556;-54
2022/03/11 13:52:58;;;;;;;;;;;;;;;;;;4761391;28;21376;-58
2022/03/11 13:55:23;;;;;;;;;;;;;;;;;;4753774;28;19925;-56
2022/03/11 13:57:48;;;;;;;;;;;;;;;;;;4779765;28;19926;-54
2022/03/11 14:00:13;;;;;;;;;;;;;;;;;;4798550;28;22711;-53
2022/03/11 14:02:38;;;;;;;;;;;;;;;;;;4788639;28;19921;-56
2022/03/11 14:05:03;;;;;;;;;;;;;;;;;;4788219;28;23427;-55
2022/03/11 14:07:29;;;;;;;;;;;;;;;;;;4776216;28;21950;-54
2022/03/11 14:09:54;;;;;;;;;;;;;;;;;;4719473;28;20857;-56
2022/03/11 14:12:19;;;;;;;;;;;;;;;;;;4737517;28;20213;-56
2022/03/11 14:14:45;;;;;;;;;;;;;;;;;;4775601;28;20011;-56
2022/03/11 14:17:11;;;;;;;;;;;;;;;;;;4813827;28;21728;-54
2022/03/11 14:19:36;;;;;;;;;;;;;;;;;;4871384;28;19966;-55
2022/03/11 14:22:01;;;;;;;;;;;;;;;;;;4912836;28;19931;-54
2022/03/11 14:24:26;;;;;;;;;;;;;;;;;;4962748;28;19969;-54
2022/03/11 14:26:51;;;;;;;;;;;;;;;;;;4971645;28;20017;-54
2022/03/11 14:29:16;;;;;;;;;;;;;;;;;;4996171;28;19925;-55
2022/03/11 14:31:41;;;;;;;;;;;;;;;;;;4974690;28;19924;-53
2022/03/11 14:34:07;;;;;;;;;;;;;;;;;;4970216;28;19975;-57
2022/03/11 14:36:32;;;;;;;;;;;;;;;;;;4994312;28;19925;-53
2022/03/11 14:38:57;;;;;;;;;;;;;;;;;;4977692;28;19925;-54
2022/03/11 14:41:22;;;;;;;;;;;;;;;;;;4982315;28;19931;-58
2022/03/11 14:43:48;;;;;;;;;;;;;;;;;;4964655;28;21187;-54
2022/03/11 14:46:13;;;;;;;;;;;;;;;;;;4987232;28;19926;-56
2022/03/11 14:48:38;;;;;;;;;;;;;;;;;;4998536;28;19925;-56
2022/03/11 14:51:03;;;;;;;;;;;;;;;;;;4991632;28;19922;-55
2022/03/11 14:53:28;;;;;;;;;;;;;;;;;;4991762;28;20252;-56
2022/03/11 14:55:53;;;;;;;;;;;;;;;;;;4970006;28;19947;-55
2022/03/11 14:58:18;;;;;;;;;;;;;;;;;;4958180;28;20359;-54
2022/03/11 15:00:43;;;;;;;;;;;;;;;;;;4922318;28;20070;-56
2022/03/11 15:03:08;;;;;;;;;;;;;;;;;;4937092;28;19928;-52
2022/03/11 15:05:34;;;;;;;;;;;;;;;;;;4949285;28;19921;-55
2022/03/11 15:07:59;;;;;;;;;;;;;;;;;;4989577;28;20770;-53
2022/03/11 15:10:24;;;;;;;;;;;;;;;;;;5007254;28;22431;-55
2022/03/11 15:12:52;;;;;;;;;;;;;;;;;;5011738;28;19924;-53
2022/03/11 15:15:17;;;;;;;;;;;;;;;;;;5006437;28;19917;-56
2022/03/11 15:17:42;;;;;;;;;;;;;;;;;;5012834;28;19928;-53
2022/03/11 15:20:07;;;;;;;;;;;;;;;;;;5018155;28;20015;-54
2022/03/11 15:22:33;;;;;;;;;;;;;;;;;;5018088;28;19922;-53
2022/03/11 15:24:58;;;;;;;;;;;;;;;;;;5011817;28;19921;-53
2022/03/11 15:27:24;;;;;;;;;;;;;;;;;;5015019;28;19921;-54
2022/03/11 15:29:49;;;;;;;;;;;;;;;;;;5016435;28;19921;-55
2022/03/11 15:32:14;;;;;;;;;;;;;;;;;;5011529;28;19921;-55
2022/03/11 15:34:39;;;;;;;;;;;;;;;;;;5019760;28;19967;-52
2022/03/11 15:37:04;;;;;;;;;;;;;;;;;;5020043;28;19925;-54
2022/03/11 15:39:29;;;;;;;;;;;;;;;;;;5017828;28;19920;-56
2022/03/11 15:41:54;;;;;;;;;;;;;;;;;;5019623;28;19956;-54
2022/03/11 15:44:19;;;;;;;;;;;;;;;;;;5018851;28;20015;-53
2022/03/11 15:46:45;;;;;;;;;;;;;;;;;;5009543;28;19921;-54
2022/03/11 15:49:10;;;;;;;;;;;;;;;;;;5000496;28;19927;-54
2022/03/11 15:51:35;;;;;;;;;;;;;;;;;;4980267;28;20078;-54
2022/03/11 15:54:00;;;;;;;;;;;;;;;;;;5000701;28;20016;-55
2022/03/11 15:56:27;;;;;;;;;;;;;;;;;;5010734;28;19979;-56
2022/03/11 15:58:53;;;;;;;;;;;;;;;;;;5024168;28;19920;-55
2022/03/11 16:01:23;;;;;;;;;;;;;;;;;;5026512;28;20475;-55
2022/03/11 16:03:48;;;;;;;;;;;;;;;;;;5018766;28;20467;-52
2022/03/11 16:06:13;;;;;;;;;;;;;;;;;;5023753;28;19978;-55
2022/03/11 16:08:38;;;;;;;;;;;;;;;;;;5023809;28;19929;-53
2022/03/11 16:11:03;;;;;;;;;;;;;;;;;;5025583;28;19913;-55
2022/03/11 16:13:28;;;;;;;;;;;;;;;;;;5019836;28;19963;-53
2022/03/11 16:15:54;;;;;;;;;;;;;;;;;;5027958;28;19952;-52
2022/03/11 16:18:19;;;;;;;;;;;;;;;;;;5025891;28;20436;-56
2022/03/11 16:20:46;;;;;;;;;;;;;;;;;;5031128;28;20264;-54
2022/03/11 16:23:11;;;;;;;;;;;;;;;;;;5025556;28;19909;-53
2022/03/11 16:25:36;;;;;;;;;;;;;;;;;;5030333;28;20007;-54
2022/03/11 16:28:01;;;;;;;;;;;;;;;;;;5026115;28;19927;-54
2022/03/11 16:30:27;;;;;;;;;;;;;;;;;;5029861;28;20012;-54
2022/03/11 16:32:52;;;;;;;;;;;;;;;;;;5032671;28;19913;-55